Time;durP1;ratioP1;P1;durP2;ratioP2;P2;SDS_P1;SDS_P2;PMS_P1;PMS_P2;Temp;Humidity;BMP_temperature;BMP_pressure;BME280_temperature;BME280_humidity;BME280_pressure;Samples;Min_cycle;Max_cycle;Signal;HPM_P1;HPM_P2
2023/08/30 00:00:03;;;;;;;;;7.67;6.00;;;;;17.12;62.15;100813.97;5086548;27;45456;-53
2023/08/30 00:02:28;;;;;;;;;5.00;5.00;;;;;17.09;62.46;100809.69;5066001;27;45911;-53
2023/08/30 00:04:59;;;;;;;;;6.67;6.00;;;;;17.07;62.29;100808.94;5094586;27;65076;-54
2023/08/30 00:07:24;;;;;;;;;7.00;6.33;;;;;17.08;62.58;100812.47;5076333;27;45494;-53
2023/08/30 00:09:49;;;;;;;;;4.67;4.67;;;;;17.08;62.30;100807.09;5088246;27;45464;-54
2023/08/30 00:12:15;;;;;;;;;6.00;6.00;;;;;17.08;62.62;100804.41;5061840;27;46088;-53
2023/08/30 00:14:40;;;;;;;;;5.33;5.33;;;;;17.08;62.60;100799.91;5089343;27;45605;-52
2023/08/30 00:17:06;;;;;;;;;4.33;4.33;;;;;17.10;62.83;100794.41;5093700;27;58981;-51
2023/08/30 00:19:31;;;;;;;;;5.67;5.67;;;;;17.10;62.76;100797.09;5086495;27;45566;-53
2023/08/30 00:21:57;;;;;;;;;5.00;5.00;;;;;17.11;62.94;100796.13;5081032;27;46019;-50
2023/08/30 00:24:22;;;;;;;;;7.33;6.00;;;;;17.11;63.27;100791.59;5082929;27;45432;-53
2023/08/30 00:26:47;;;;;;;;;5.00;5.00;;;;;17.12;62.92;100785.25;5092047;27;45438;-51
2023/08/30 00:29:13;;;;;;;;;6.33;5.00;;;;;17.14;62.87;100779.78;5084350;27;65759;-54
2023/08/30 00:31:38;;;;;;;;;6.00;4.67;;;;;17.16;62.98;100777.81;5084005;27;45474;-53
2023/08/30 00:34:04;;;;;;;;;7.00;6.67;;;;;17.19;62.48;100783.81;5090178;27;45561;-50
2023/08/30 00:36:29;;;;;;;;;7.33;7.33;;;;;17.24;62.88;100774.53;5085447;27;64739;-53
2023/08/30 00:38:54;;;;;;;;;3.00;3.00;;;;;17.26;62.78;100773.44;5086276;27;70596;-52
2023/08/30 00:41:20;;;;;;;;;3.33;1.67;;;;;17.31;63.06;100771.25;5085058;27;67603;-52
2023/08/30 00:43:45;;;;;;;;;4.00;4.00;;;;;17.37;62.73;100772.59;5091518;27;45470;-53
2023/08/30 00:46:11;;;;;;;;;4.67;4.67;;;;;17.43;62.72;100763.16;5098222;27;46788;-53
2023/08/30 00:48:36;;;;;;;;;7.00;6.00;;;;;17.49;62.34;100757.31;5082166;27;50487;-54
2023/08/30 00:51:02;;;;;;;;;8.00;6.00;;;;;17.55;62.07;100767.59;5086112;27;54078;-52
2023/08/30 00:53:27;;;;;;;;;4.67;4.00;;;;;17.59;61.78;100757.44;5093884;27;45244;-52
2023/08/30 00:55:53;;;;;;;;;5.00;5.00;;;;;17.63;61.67;100759.75;5070232;27;45289;-52
2023/08/30 00:58:18;;;;;;;;;6.00;4.33;;;;;17.66;61.73;100750.56;5089484;27;67112;-53
2023/08/30 01:00:44;;;;;;;;;5.00;3.00;;;;;17.69;61.53;100753.00;5092740;27;46390;-52
2023/08/30 01:03:09;;;;;;;;;5.67;4.33;;;;;17.73;61.53;100745.53;5069238;27;64198;-52
2023/08/30 01:05:34;;;;;;;;;4.67;3.33;;;;;17.74;61.40;100752.66;5086470;27;45430;-52
2023/08/30 01:08:00;;;;;;;;;6.00;5.67;;;;;17.73;61.53;100743.72;5096268;27;45336;-53
2023/08/30 01:10:50;;;;;;;;;3.67;3.67;;;;;17.74;61.60;100749.94;5085405;27;74722;-53
2023/08/30 01:13:19;;;;;;;;;7.00;7.00;;;;;17.72;61.81;100754.59;5053047;27;45609;-51
2023/08/30 01:15:47;;;;;;;;;5.00;5.00;;;;;17.71;61.99;100744.84;5083623;27;45370;-53
2023/08/30 01:18:13;;;;;;;;;6.00;5.67;;;;;17.73;61.78;100737.47;5081337;27;45447;-54
2023/08/30 01:20:39;;;;;;;;;9.33;7.00;;;;;17.72;61.97;100736.63;5093646;27;45462;-54
2023/08/30 01:23:12;;;;;;;;;6.00;6.00;;;;;17.74;62.06;100731.13;5091899;27;45408;-53
2023/08/30 01:26:08;;;;;;;;;6.00;5.67;;;;;17.75;62.19;100722.09;5089994;27;45751;-52
2023/08/30 01:28:35;;;;;;;;;5.67;5.67;;;;;17.74;61.93;100726.59;5069678;27;46091;-51
2023/08/30 01:31:02;;;;;;;;;5.67;4.33;;;;;17.74;62.19;100723.06;5094503;27;45442;-51
2023/08/30 01:33:28;;;;;;;;;5.00;5.00;;;;;17.72;62.10;100717.81;5088875;27;45525;-52
2023/08/30 01:35:58;;;;;;;;;5.67;5.67;;;;;17.73;62.18;100716.84;5076897;27;68154;-54
2023/08/30 01:38:25;;;;;;;;;7.67;5.67;;;;;17.72;62.16;100720.50;5085363;27;45408;-54
2023/08/30 01:40:51;;;;;;;;;5.00;5.00;;;;;17.72;62.45;100715.13;5057680;27;45512;-54
2023/08/30 01:43:16;;;;;;;;;7.00;5.67;;;;;17.72;62.22;100714.25;5093735;27;45277;-53
2023/08/30 01:45:43;;;;;;;;;4.00;4.00;;;;;17.73;62.35;100715.97;5066388;28;63118;-52
2023/08/30 01:48:14;;;;;;;;;5.33;4.33;;;;;17.74;62.28;100715.84;5092301;27;45537;-52
2023/08/30 01:50:40;;;;;;;;;5.00;4.00;;;;;17.76;62.14;100713.03;5097127;27;46194;-53
2023/08/30 01:53:07;;;;;;;;;5.67;5.67;;;;;17.77;62.07;100712.91;5090148;27;45659;-53
2023/08/30 01:55:34;;;;;;;;;3.33;3.33;;;;;17.77;61.77;100703.97;5078494;27;45496;-52
2023/08/30 01:57:59;;;;;;;;;3.00;3.00;;;;;17.78;61.54;100703.00;5096078;27;45412;-53
2023/08/30 02:00:24;;;;;;;;;6.00;4.00;;;;;17.78;61.49;100701.19;5079768;27;74620;-52
2023/08/30 02:02:50;;;;;;;;;3.33;3.33;;;;;17.80;61.14;100703.72;5073876;27;54325;-50
2023/08/30 02:05:15;;;;;;;;;3.00;3.00;;;;;17.82;61.39;100705.31;5088461;27;45340;-53
2023/08/30 02:08:04;;;;;;;;;2.00;2.00;;;;;17.84;60.84;100706.03;5097949;27;67394;-53
2023/08/30 02:10:34;;;;;;;;;2.00;2.00;;;;;17.85;60.96;100698.84;5069407;27;45555;-52
2023/08/30 02:13:02;;;;;;;;;3.00;3.00;;;;;17.85;60.78;100704.22;5082298;27;45496;-52
2023/08/30 02:15:30;;;;;;;;;3.00;3.00;;;;;17.87;60.89;100702.22;5069182;27;45453;-53
2023/08/30 02:17:56;;;;;;;;;4.00;4.00;;;;;17.89;60.54;100696.75;5069267;28;45512;-54
2023/08/30 02:20:22;;;;;;;;;2.33;2.33;;;;;17.92;60.48;100702.72;5084133;27;46102;-53
2023/08/30 02:22:47;;;;;;;;;4.67;3.00;;;;;17.93;60.08;100700.91;5069702;28;70030;-51
2023/08/30 02:25:12;;;;;;;;;4.00;2.67;;;;;17.94;60.41;100699.91;5070462;27;59808;-54
2023/08/30 02:27:38;;;;;;;;;3.33;3.00;;;;;17.94;59.93;100697.22;5094221;27;70366;-52
2023/08/30 02:30:04;;;;;;;;;2.67;1.67;;;;;17.93;60.08;100684.78;5096688;27;46266;-51
2023/08/30 02:32:29;;;;;;;;;2.67;2.67;;;;;17.95;60.05;100690.88;5092323;27;45512;-51
2023/08/30 02:34:56;;;;;;;;;3.00;3.00;;;;;17.97;59.92;100686.22;5082643;27;45401;-53
2023/08/30 02:37:21;;;;;;;;;3.00;3.00;;;;;18.00;60.03;100680.59;5090420;27;45676;-53
2023/08/30 02:39:47;;;;;;;;;4.00;3.33;;;;;18.00;59.78;100675.19;5096628;27;46738;-54
2023/08/30 02:42:12;;;;;;;;;3.67;3.67;;;;;18.00;59.75;100668.00;5090694;27;45453;-49
2023/08/30 02:44:37;;;;;;;;;2.00;2.00;;;;;18.01;59.63;100672.38;5086585;27;45348;-51
2023/08/30 02:47:03;;;;;;;;;3.67;3.67;;;;;18.01;59.47;100672.38;5091137;27;67258;-54
2023/08/30 02:49:28;;;;;;;;;4.67;3.67;;;;;18.00;59.23;100672.50;5089508;27;46141;-55
2023/08/30 02:51:54;;;;;;;;;1.33;1.33;;;;;18.00;59.41;100667.13;5091258;27;71994;-54
2023/08/30 02:54:19;;;;;;;;;4.00;2.00;;;;;18.00;59.24;100669.81;5079862;27;45333;-54
2023/08/30 02:56:45;;;;;;;;;3.00;3.00;;;;;18.00;59.14;100680.59;5089437;27;45437;-54
2023/08/30 02:59:11;;;;;;;;;2.33;2.33;;;;;18.00;59.41;100689.53;5088630;27;70893;-54
2023/08/30 03:01:37;;;;;;;;;3.00;3.00;;;;;18.00;58.85;100683.28;5087078;27;45457;-58
2023/08/30 03:04:05;;;;;;;;;2.67;2.67;;;;;17.99;58.71;100682.44;5082077;27;45451;-52
2023/08/30 03:06:30;;;;;;;;;4.00;2.00;;;;;17.93;59.19;100691.00;5089350;27;45474;-51
2023/08/30 03:08:55;;;;;;;;;4.67;3.00;;;;;17.85;59.38;100678.16;5091258;27;74596;-52
2023/08/30 03:11:21;;;;;;;;;2.00;2.00;;;;;17.82;59.75;100688.31;5086552;27;48222;-54
2023/08/30 03:13:46;;;;;;;;;3.00;3.00;;;;;17.81;59.57;100686.63;5085441;27;69018;-54
2023/08/30 03:16:15;;;;;;;;;2.33;2.33;;;;;17.80;59.75;100680.38;5068957;28;51822;-53
2023/08/30 03:18:42;;;;;;;;;4.00;2.00;;;;;17.80;59.86;100680.38;5093276;27;46139;-54
2023/08/30 03:21:07;;;;;;;;;4.00;3.00;;;;;17.77;59.95;100677.06;5086953;27;45362;-54
2023/08/30 03:23:33;;;;;;;;;2.67;2.67;;;;;17.73;60.19;100670.22;5084704;27;45472;-51
2023/08/30 03:25:59;;;;;;;;;2.33;2.33;;;;;17.66;60.35;100672.59;5087163;27;45307;-53
2023/08/30 03:28:24;;;;;;;;;3.33;3.33;;;;;17.63;60.71;100668.31;5090342;27;46390;-53
2023/08/30 03:30:50;;;;;;;;;5.67;4.00;;;;;17.62;60.73;100665.75;5087530;27;45741;-52
2023/08/30 03:33:15;;;;;;;;;2.67;2.67;;;;;17.61;60.58;100666.72;5084880;27;63677;-53
2023/08/30 03:35:42;;;;;;;;;4.67;3.00;;;;;17.61;61.27;100664.91;5080146;27;45351;-54
2023/08/30 03:38:07;;;;;;;;;3.67;3.00;;;;;17.62;61.42;100660.38;5091149;27;47683;-55
2023/08/30 03:40:32;;;;;;;;;5.00;3.33;;;;;17.60;61.90;100668.56;5088156;27;73070;-52
2023/08/30 03:42:58;;;;;;;;;3.67;2.67;;;;;17.60;62.13;100657.81;5070953;27;67810;-55
2023/08/30 03:45:23;;;;;;;;;2.67;2.67;;;;;17.61;61.58;100669.41;5086160;27;69199;-54
2023/08/30 03:47:48;;;;;;;;;3.33;3.33;;;;;17.59;62.47;100661.47;5070114;27;46915;-54
2023/08/30 03:50:14;;;;;;;;;6.00;1.33;;;;;17.59;62.16;100653.41;5095049;27;45692;-52
2023/08/30 03:52:39;;;;;;;;;2.33;2.33;;;;;17.56;62.65;100660.88;5079357;27;45560;-53
2023/08/30 03:55:05;;;;;;;;;4.00;2.33;;;;;17.52;62.87;100661.13;5093371;27;50963;-52
2023/08/30 03:57:30;;;;;;;;;3.00;2.00;;;;;17.52;63.10;100661.13;5096748;27;46184;-53
2023/08/30 03:59:56;;;;;;;;;3.33;3.33;;;;;17.51;63.45;100662.09;5090344;27;72126;-52
2023/08/30 04:02:21;;;;;;;;;3.67;2.67;;;;;17.48;63.42;100659.66;5096742;27;45382;-51
2023/08/30 04:04:48;;;;;;;;;2.00;2.00;;;;;17.45;63.70;100651.84;5071412;28;45550;-53
2023/08/30 04:07:13;;;;;;;;;4.00;3.00;;;;;17.48;64.00;100651.59;5094175;27;47125;-53
2023/08/30 04:09:38;;;;;;;;;2.67;2.67;;;;;17.51;64.00;100645.97;5092207;27;45322;-53
2023/08/30 04:12:04;;;;;;;;;6.00;3.33;;;;;17.48;63.67;100648.91;5091784;27;45472;-54
2023/08/30 04:14:30;;;;;;;;;3.00;3.00;;;;;17.50;63.75;100651.47;5092678;27;45417;-54
2023/08/30 04:16:55;;;;;;;;;4.00;4.00;;;;;17.53;63.81;100644.03;5082423;27;47365;-52
2023/08/30 04:19:21;;;;;;;;;4.00;4.00;;;;;17.57;63.80;100646.44;5095913;27;66725;-51
2023/08/30 04:21:46;;;;;;;;;4.67;4.00;;;;;17.59;64.08;100645.34;5092177;27;67200;-50
2023/08/30 04:24:11;;;;;;;;;3.00;2.00;;;;;17.61;63.92;100647.91;5095531;27;68567;-53
2023/08/30 04:26:37;;;;;;;;;3.00;3.00;;;;;17.63;64.44;100646.78;5078199;27;47531;-53
2023/08/30 04:29:03;;;;;;;;;3.00;3.00;;;;;17.60;64.78;100633.63;5090781;27;65471;-53
2023/08/30 04:31:28;;;;;;;;;3.00;3.00;;;;;17.57;63.72;100636.53;5088720;27;45295;-53
2023/08/30 04:33:55;;;;;;;;;3.00;2.67;;;;;17.58;64.35;100632.88;5067231;27;45322;-53
2023/08/30 04:36:21;;;;;;;;;5.00;5.00;;;;;17.63;64.48;100629.81;5085890;27;45449;-53
2023/08/30 04:38:46;;;;;;;;;2.67;2.67;;;;;17.64;64.44;100627.00;5083650;27;45224;-53
2023/08/30 04:41:12;;;;;;;;;3.33;3.33;;;;;17.59;64.24;100618.44;5073647;27;45514;-52
2023/08/30 04:43:37;;;;;;;;;5.00;3.00;;;;;17.57;64.32;100620.41;5095703;27;45361;-53
2023/08/30 04:46:02;;;;;;;;;3.67;3.67;;;;;17.60;64.23;100616.59;5099152;27;66596;-53
2023/08/30 04:48:28;;;;;;;;;5.00;3.33;;;;;17.62;64.54;100620.88;5083829;27;66349;-54
2023/08/30 04:51:04;;;;;;;;;4.00;2.00;;;;;17.62;64.52;100620.88;5087491;27;45370;-54
2023/08/30 04:53:29;;;;;;;;;3.67;3.33;;;;;17.61;64.49;100624.56;5073197;27;45530;-54
2023/08/30 04:55:55;;;;;;;;;4.00;4.00;;;;;17.64;64.47;100626.16;5076652;27;45524;-52
2023/08/30 04:58:20;;;;;;;;;4.67;4.33;;;;;17.65;64.34;100622.47;5092503;27;45395;-53
2023/08/30 05:00:46;;;;;;;;;4.33;3.67;;;;;17.67;64.29;100615.13;5086349;27;45347;-52
2023/08/30 05:03:11;;;;;;;;;3.67;3.67;;;;;17.68;64.43;100611.47;5092282;27;69019;-53
2023/08/30 05:05:37;;;;;;;;;4.00;4.00;;;;;17.65;64.32;100612.56;5084865;27;46344;-54
2023/08/30 05:08:03;;;;;;;;;4.00;3.33;;;;;17.63;64.38;100606.44;5092127;27;59553;-54
2023/08/30 05:10:28;;;;;;;;;4.33;4.00;;;;;17.61;64.56;100611.13;5086557;27;45448;-53
2023/08/30 05:12:54;;;;;;;;;3.33;3.33;;;;;17.56;65.49;100609.78;5092547;27;61276;-53
2023/08/30 05:15:19;;;;;;;;;5.00;4.00;;;;;17.52;65.12;100611.84;5088674;27;45447;-53
2023/08/30 05:17:44;;;;;;;;;4.33;3.00;;;;;17.54;65.01;100609.91;5080833;27;45754;-54
2023/08/30 05:20:10;;;;;;;;;4.00;4.00;;;;;17.58;65.10;100607.81;5085360;27;45634;-52
2023/08/30 05:22:35;;;;;;;;;6.67;3.67;;;;;17.61;65.06;100610.25;5081561;27;45537;-54
2023/08/30 05:25:01;;;;;;;;;2.00;2.00;;;;;17.62;64.96;100614.66;5085971;27;56772;-53
2023/08/30 05:27:27;;;;;;;;;6.67;5.67;;;;;17.65;64.71;100617.06;5074465;27;45509;-53
2023/08/30 05:29:52;;;;;;;;;5.00;4.33;;;;;17.65;65.31;100611.69;5082910;27;45306;-53
2023/08/30 05:32:17;;;;;;;;;4.67;4.67;;;;;17.64;65.33;100613.53;5082198;27;45326;-53
2023/08/30 05:34:43;;;;;;;;;3.67;3.67;;;;;17.65;65.85;100611.69;5081932;27;67109;-51
2023/08/30 05:37:08;;;;;;;;;5.00;4.00;;;;;17.65;64.96;100604.50;5080398;27;60381;-52
2023/08/30 05:39:34;;;;;;;;;5.00;5.00;;;;;17.64;64.78;100616.25;5084211;27;46031;-51
2023/08/30 05:41:59;;;;;;;;;4.00;4.00;;;;;17.65;65.22;100609.00;5087979;27;45450;-51
2023/08/30 05:44:25;;;;;;;;;5.00;4.00;;;;;17.62;65.99;100620.03;5082121;27;46213;-52
2023/08/30 05:46:50;;;;;;;;;3.33;3.33;;;;;17.58;65.81;100622.13;5064310;27;45894;-53
2023/08/30 05:49:16;;;;;;;;;4.00;4.00;;;;;17.58;66.10;100619.44;5085623;27;66484;-54
2023/08/30 05:51:41;;;;;;;;;3.00;3.00;;;;;17.61;65.43;100621.88;5080350;27;66328;-53
2023/08/30 05:54:07;;;;;;;;;3.00;3.00;;;;;17.62;65.67;100625.41;5081640;27;56191;-53
2023/08/30 05:56:32;;;;;;;;;6.00;3.33;;;;;17.63;66.37;100627.13;5058176;27;45611;-51
2023/08/30 05:58:58;;;;;;;;;3.00;3.00;;;;;17.63;66.34;100635.19;5085157;27;45940;-54
2023/08/30 06:01:23;;;;;;;;;3.00;3.00;;;;;17.63;66.19;100624.44;5072325;27;45450;-52
2023/08/30 06:03:48;;;;;;;;;3.00;2.00;;;;;17.60;67.31;100633.63;5067279;27;73230;-51
2023/08/30 06:06:15;;;;;;;;;4.33;3.00;;;;;17.61;67.19;100624.56;5088650;27;72114;-53
2023/08/30 06:08:42;;;;;;;;;7.33;4.67;;;;;17.63;67.88;100636.03;5085704;27;45504;-53
2023/08/30 06:11:08;;;;;;;;;6.33;3.00;;;;;17.66;67.28;100632.25;5084336;27;45479;-53
2023/08/30 06:13:33;;;;;;;;;5.00;4.67;;;;;17.69;67.70;100626.59;5083335;27;46059;-51
2023/08/30 06:15:59;;;;;;;;;3.00;3.00;;;;;17.74;67.86;100629.75;5088942;27;45297;-49
2023/08/30 06:18:26;;;;;;;;;4.67;4.00;;;;;17.80;67.85;100633.78;5086665;27;67542;-52
2023/08/30 06:20:51;;;;;;;;;3.00;3.00;;;;;17.85;67.33;100626.19;5086172;27;45877;-52
2023/08/30 06:23:19;;;;;;;;;5.00;3.67;;;;;17.89;67.27;100633.03;5086652;27;74422;-53
2023/08/30 06:25:44;;;;;;;;;4.00;4.00;;;;;17.92;67.28;100640.81;5068221;27;45386;-53
2023/08/30 06:28:10;;;;;;;;;4.00;4.00;;;;;17.96;67.26;100639.63;5088876;27;69337;-52
2023/08/30 06:30:35;;;;;;;;;7.00;4.00;;;;;17.98;66.97;100634.97;5091425;27;45567;-53
2023/08/30 06:33:01;;;;;;;;;5.67;4.00;;;;;18.00;66.62;100637.53;5084425;27;64174;-53
2023/08/30 06:35:26;;;;;;;;;5.00;4.00;;;;;18.00;66.88;100629.44;5084614;27;45385;-54
2023/08/30 06:37:52;;;;;;;;;5.33;5.00;;;;;18.07;67.27;100629.78;5085853;27;68102;-54
2023/08/30 06:40:17;;;;;;;;;5.00;4.00;;;;;18.16;66.59;100626.31;5082436;27;45521;-53
2023/08/30 06:42:43;;;;;;;;;4.00;3.33;;;;;18.21;66.42;100628.63;5078969;27;45779;-53
2023/08/30 06:45:08;;;;;;;;;3.00;3.00;;;;;18.25;66.76;100628.25;5051193;28;68797;-54
2023/08/30 06:47:34;;;;;;;;;3.00;3.00;;;;;18.32;66.62;100634.78;5081539;27;45507;-55
2023/08/30 06:50:00;;;;;;;;;6.00;5.00;;;;;18.33;66.31;100639.19;5080225;27;45387;-55
2023/08/30 06:52:25;;;;;;;;;2.33;2.33;;;;;18.35;67.13;100639.06;5081202;27;45842;-55
2023/08/30 06:54:51;;;;;;;;;6.00;3.00;;;;;18.32;66.56;100642.03;5085382;27;45805;-55
2023/08/30 06:57:16;;;;;;;;;3.33;3.33;;;;;18.29;67.16;100642.28;5087355;27;58581;-55
2023/08/30 06:59:42;;;;;;;;;3.00;2.67;;;;;18.29;67.11;100637.75;5070253;28;45818;-54
2023/08/30 07:02:08;;;;;;;;;3.00;2.67;;;;;18.26;67.43;100647.94;5066854;27;47309;-56
2023/08/30 07:04:33;;;;;;;;;4.00;4.00;;;;;18.27;67.18;100649.66;5089814;27;45308;-57
2023/08/30 07:06:58;;;;;;;;;2.33;2.33;;;;;18.25;68.24;100649.78;5082420;27;45603;-57
2023/08/30 07:09:28;;;;;;;;;1.00;1.00;;;;;18.23;67.83;100646.34;5074084;27;61512;-58
2023/08/30 07:11:55;;;;;;;;;2.00;2.00;;;;;18.22;67.96;100651.88;5081160;27;46863;-58
2023/08/30 07:14:21;;;;;;;;;3.33;3.00;;;;;18.24;68.01;100649.88;5087816;27;45330;-57
2023/08/30 07:16:46;;;;;;;;;5.00;3.00;;;;;18.27;68.03;100645.09;5082289;27;60810;-58
2023/08/30 07:19:11;;;;;;;;;3.00;3.00;;;;;18.33;67.64;100649.97;5084380;27;45459;-55
2023/08/30 07:21:38;;;;;;;;;2.67;2.67;;;;;18.35;67.55;100649.84;5087892;27;45514;-57
2023/08/30 07:24:05;;;;;;;;;3.67;3.67;;;;;18.42;67.33;100650.16;5069217;27;45504;-57
2023/08/30 07:26:31;;;;;;;;;3.33;2.00;;;;;18.49;67.22;100648.66;5092706;27;45349;-57
2023/08/30 07:28:56;;;;;;;;;4.00;2.00;;;;;18.63;67.07;100653.72;5094207;27;72411;-57
2023/08/30 07:31:22;;;;;;;;;2.00;2.00;;;;;18.78;66.79;100647.97;5058439;27;71621;-57
2023/08/30 07:33:47;;;;;;;;;3.00;2.00;;;;;18.87;66.37;100643.63;5085005;27;45734;-57
2023/08/30 07:36:13;;;;;;;;;2.67;2.00;;;;;18.91;65.80;100637.84;5079075;27;64783;-57
2023/08/30 07:38:38;;;;;;;;;2.00;2.00;;;;;18.98;65.55;100646.25;5078333;28;46583;-57
2023/08/30 07:41:03;;;;;;;;;1.00;1.00;;;;;19.14;65.47;100648.47;5085364;27;47152;-57
2023/08/30 07:43:29;;;;;;;;;2.75;2.00;;;;;19.27;64.64;100646.38;5051330;28;61570;-57
2023/08/30 07:45:54;;;;;;;;;1.75;1.75;;;;;19.29;64.42;100644.38;5095134;27;45260;-58
2023/08/30 07:48:20;;;;;;;;;3.00;2.00;;;;;19.34;64.29;100647.50;5059580;28;68312;-58
2023/08/30 07:50:45;;;;;;;;;2.67;2.00;;;;;19.39;64.26;100654.38;5082814;27;72397;-58
2023/08/30 07:53:12;;;;;;;;;4.00;2.33;;;;;19.38;63.37;100650.78;5061852;27;62592;-57
2023/08/30 07:55:37;;;;;;;;;2.50;2.50;;;;;19.33;63.44;100656.63;5063456;27;45629;-57
2023/08/30 07:58:05;;;;;;;;;2.00;2.00;;;;;19.31;63.56;100649.66;5089516;27;68473;-58
2023/08/30 08:00:30;;;;;;;;;3.50;3.00;;;;;19.37;63.75;100649.09;5086762;27;46063;-57
2023/08/30 08:02:56;;;;;;;;;3.00;3.00;;;;;19.54;63.29;100654.81;5062304;28;60953;-57
2023/08/30 08:05:21;;;;;;;;;3.00;3.00;;;;;19.77;62.85;100650.03;5080188;27;55340;-57
2023/08/30 08:07:53;;;;;;;;;2.00;1.67;;;;;19.99;61.61;100647.06;5080410;27;45806;-57
2023/08/30 08:10:19;;;;;;;;;6.00;3.33;;;;;20.25;61.72;100646.50;5077490;27;45422;-57
2023/08/30 08:12:44;;;;;;;;;3.50;3.00;;;;;20.51;61.10;100640.50;5071245;27;45398;-57
2023/08/30 08:15:10;;;;;;;;;2.67;2.67;;;;;20.64;59.88;100632.94;5081751;27;45429;-57
2023/08/30 08:17:35;;;;;;;;;2.33;2.33;;;;;20.82;59.23;100629.50;5061292;28;45289;-57
2023/08/30 08:20:01;;;;;;;;;4.00;3.00;;;;;21.12;59.38;100635.66;5081119;27;45934;-57
2023/08/30 08:22:26;;;;;;;;;7.67;5.33;;;;;21.46;58.68;100638.56;5055225;27;45391;-57
2023/08/30 08:24:53;;;;;;;;;3.00;3.00;;;;;21.85;57.48;100642.91;5078886;27;65839;-57
2023/08/30 08:27:19;;;;;;;;;5.67;2.67;;;;;22.14;56.17;100642.66;5074776;27;45335;-57
2023/08/30 08:29:44;;;;;;;;;4.00;3.25;;;;;22.27;56.18;100649.53;5076624;27;51258;-57
2023/08/30 08:32:09;;;;;;;;;2.75;2.50;;;;;22.45;55.29;100657.69;5095905;27;47288;-58
2023/08/30 08:34:34;;;;;;;;;2.50;2.50;;;;;22.37;53.52;100654.88;5069152;27;56894;-58
2023/08/30 08:37:00;;;;;;;;;3.25;3.00;;;;;22.27;53.41;100650.38;5071987;27;64502;-58
2023/08/30 08:39:25;;;;;;;;;2.00;2.00;;;;;22.30;53.34;100650.06;5097056;27;71756;-57
2023/08/30 08:41:52;;;;;;;;;3.25;3.25;;;;;22.59;53.63;100657.09;5084826;27;53905;-58
2023/08/30 08:44:19;;;;;;;;;2.00;2.00;;;;;23.00;52.97;100663.75;5074936;27;45493;-58
2023/08/30 08:46:44;;;;;;;;;3.75;2.00;;;;;23.46;51.19;100658.91;5068861;27;45615;-58
2023/08/30 08:49:16;;;;;;;;;4.25;3.00;;;;;23.70;50.62;100662.72;5078481;27;58368;-58
2023/08/30 08:51:43;;;;;;;;;3.50;2.75;;;;;23.79;49.21;100659.00;5092122;27;45419;-58
2023/08/30 08:54:09;;;;;;;;;4.00;4.00;;;;;23.77;48.66;100659.16;5073607;27;45506;-58
2023/08/30 08:56:35;;;;;;;;;2.75;2.75;;;;;23.96;48.58;100654.47;5097990;27;45338;-58
2023/08/30 08:59:01;;;;;;;;;2.50;1.50;;;;;24.14;48.53;100654.31;5097794;27;46140;-58
2023/08/30 09:01:26;;;;;;;;;2.25;1.00;;;;;24.34;46.71;100656.69;5089437;27;45405;-58
2023/08/30 09:03:52;;;;;;;;;3.00;3.00;;;;;24.63;45.54;100655.28;5084024;27;45583;-58
2023/08/30 09:06:18;;;;;;;;;3.75;1.75;;;;;25.56;45.04;100651.13;5098762;27;62361;-58
2023/08/30 09:08:43;;;;;;;;;3.25;1.75;;;;;28.07;43.57;100654.50;5069611;27;45499;-58
2023/08/30 09:11:08;;;;;;;;;3.25;1.75;;;;;29.41;39.62;100640.91;5089081;27;70325;-58
2023/08/30 09:13:34;;;;;;;;;3.50;2.00;;;;;31.28;38.36;100653.84;5094489;27;61427;-58
2023/08/30 09:15:59;;;;;;;;;3.50;2.00;;;;;33.01;36.13;100655.53;5099873;27;47226;-59
2023/08/30 09:18:27;;;;;;;;;3.25;1.25;;;;;34.27;33.71;100652.16;5094654;27;73436;-58
2023/08/30 09:20:53;;;;;;;;;3.00;2.75;;;;;35.47;33.20;100651.00;5099320;27;45396;-59
2023/08/30 09:23:24;;;;;;;;;2.00;2.00;;;;;36.33;31.16;100661.94;5087765;27;45300;-58
2023/08/30 09:25:54;;;;;;;;;4.00;2.25;;;;;35.59;29.88;100666.47;5094467;27;45392;-59
2023/08/30 09:28:20;;;;;;;;;0.50;0.50;;;;;35.13;29.62;100662.72;5086032;27;46156;-57
2023/08/30 09:30:54;;;;;;;;;1.00;1.00;;;;;35.81;28.86;100660.19;5087664;27;45449;-59
2023/08/30 09:33:21;;;;;;;;;0.75;0.75;;;;;36.86;28.05;100661.72;5089524;27;45499;-58
2023/08/30 09:35:47;;;;;;;;;2.25;1.25;;;;;37.45;26.60;100660.25;5095155;27;45587;-58
2023/08/30 09:38:19;;;;;;;;;0.00;0.00;;;;;37.48;25.63;100663.31;5090400;27;63905;-58
2023/08/30 09:40:45;;;;;;;;;0.00;0.00;;;;;36.73;25.27;100666.47;5072422;27;45434;-58
2023/08/30 09:43:14;;;;;;;;;0.75;0.75;;;;;34.81;25.92;100654.84;5077935;27;45275;-58
2023/08/30 09:45:41;;;;;;;;;2.00;2.00;;;;;32.90;26.91;100652.47;5076875;27;45523;-58
2023/08/30 09:48:07;;;;;;;;;1.25;1.25;;;;;31.54;27.68;100661.09;5099955;27;47115;-58
2023/08/30 09:50:35;;;;;;;;;4.50;1.50;;;;;31.52;28.09;100657.72;5085645;27;45353;-58
2023/08/30 09:53:06;;;;;;;;;2.00;2.00;;;;;32.00;28.15;100660.00;5080684;27;45459;-58
2023/08/30 09:55:32;;;;;;;;;2.75;2.50;;;;;32.15;27.67;100656.06;5094514;27;45521;-58
2023/08/30 09:57:58;;;;;;;;;2.00;2.00;;;;;33.43;27.16;100651.03;5076775;27;74157;-58
2023/08/30 10:00:23;;;;;;;;;3.00;1.50;;;;;34.99;26.59;100664.91;5095163;27;62715;-58
2023/08/30 10:02:49;;;;;;;;;2.50;1.00;;;;;36.35;24.42;100654.28;5095380;27;58149;-58
2023/08/30 10:05:15;;;;;;;;;1.25;1.25;;;;;37.47;21.80;100652.50;5061148;27;70369;-58
2023/08/30 10:07:40;;;;;;;;;1.75;1.00;;;;;38.16;21.43;100654.59;5091172;27;49677;-58
2023/08/30 10:10:06;;;;;;;;;1.25;1.25;;;;;38.34;22.38;100656.13;5074091;27;45348;-59
2023/08/30 10:12:32;;;;;;;;;0.00;0.00;;;;;38.78;22.26;100659.78;5082146;27;45410;-59
2023/08/30 10:14:58;;;;;;;;;2.00;2.00;;;;;39.13;20.41;100658.28;5093202;27;45358;-58
2023/08/30 10:17:27;;;;;;;;;3.25;2.75;;;;;39.44;21.59;100669.53;5086356;27;46314;-59
2023/08/30 10:19:53;;;;;;;;;1.25;1.00;;;;;39.67;19.84;100665.44;5077452;27;45469;-58
2023/08/30 10:22:19;;;;;;;;;2.25;0.25;;;;;39.89;19.20;100654.06;5081927;27;45722;-57
2023/08/30 10:24:50;;;;;;;;;0.25;0.25;;;;;40.17;19.71;100665.81;5070375;27;45521;-57
2023/08/30 10:27:16;;;;;;;;;1.00;1.00;;;;;40.32;18.83;100664.94;5066768;27;46363;-58
2023/08/30 10:29:43;;;;;;;;;1.80;1.00;;;;;40.45;19.65;100664.38;5066885;28;71743;-58
2023/08/30 10:32:08;;;;;;;;;1.00;1.00;;;;;40.71;18.87;100666.31;5078566;27;45504;-58
2023/08/30 10:34:35;;;;;;;;;0.00;0.00;;;;;40.94;19.26;100662.91;5089154;27;51492;-58
2023/08/30 10:37:01;;;;;;;;;3.25;1.00;;;;;40.45;18.10;100661.59;5094028;27;46822;-58
2023/08/30 10:39:37;;;;;;;;;2.00;1.00;;;;;40.00;19.96;100661.31;5079600;27;45906;-58
2023/08/30 10:42:13;;;;;;;;;3.50;1.50;;;;;39.84;19.25;100651.28;5089513;27;45564;-58
2023/08/30 10:44:50;;;;;;;;;1.00;1.00;;;;;38.19;19.28;100648.50;5089516;27;45354;-59
2023/08/30 10:47:38;;;;;;;;;0.00;0.00;;;;;37.55;20.51;100650.09;5080826;27;45407;-58
2023/08/30 10:50:11;;;;;;;;;1.75;1.75;;;;;38.06;20.81;100646.19;5073972;27;45732;-59
2023/08/30 10:52:37;;;;;;;;;3.75;1.25;;;;;37.52;19.59;100655.31;5089120;27;45409;-58
2023/08/30 10:55:12;;;;;;;;;4.25;2.25;;;;;36.32;20.19;100665.81;5085343;27;46725;-59
2023/08/30 10:57:43;;;;;;;;;1.25;1.25;;;;;36.38;20.76;100656.53;5098566;27;45538;-58
2023/08/30 11:00:18;;;;;;;;;3.25;0.75;;;;;36.80;20.23;100651.59;5098521;27;45280;-58
2023/08/30 11:02:48;;;;;;;;;3.50;0.25;;;;;35.93;20.65;100655.50;5098634;27;45551;-58
2023/08/30 11:05:16;;;;;;;;;1.00;1.00;;;;;34.48;21.62;100658.19;5071840;28;45460;-59
2023/08/30 11:07:42;;;;;;;;;0.75;0.75;;;;;34.04;22.94;100659.31;5091063;27;45461;-58
2023/08/30 11:10:08;;;;;;;;;1.75;0.25;;;;;34.29;22.94;100652.75;5079129;28;45371;-58
2023/08/30 11:12:35;;;;;;;;;1.00;1.00;;;;;34.79;21.45;100659.75;5060980;28;45522;-58
2023/08/30 11:15:00;;;;;;;;;1.50;1.50;;;;;34.82;22.10;100642.69;5079949;27;45558;-58
2023/08/30 11:17:27;;;;;;;;;2.00;2.00;;;;;34.39;22.18;100657.72;5079952;27;45545;-58
2023/08/30 11:19:58;;;;;;;;;1.50;1.50;;;;;34.25;22.95;100644.09;5081049;27;46105;-58